sensor_id;sensor_type;location;lat;lon;timestamp;P1;durP1;ratioP1;P2;durP2;ratioP2
17496;SDS011;62150;43.582;1.456;2022-11-20T07:01:12;7.00;;;3.20;;
17496;SDS011;62150;43.582;1.456;2022-11-20T07:03:40;6.63;;;3.10;;
17496;SDS011;62150;43.582;1.456;2022-11-20T07:06:08;6.83;;;3.27;;
17496;SDS011;62150;43.582;1.456;2022-11-20T07:08:36;7.97;;;3.43;;
17496;SDS011;62150;43.582;1.456;2022-11-20T07:11:04;8.50;;;3.50;;
17496;SDS011;62150;43.582;1.456;2022-11-20T07:13:33;6.20;;;3.03;;
17496;SDS011;62150;43.582;1.456;2022-11-20T07:16:01;6.97;;;3.30;;
17496;SDS011;62150;43.582;1.456;2022-11-20T07:18:31;7.27;;;3.23;;
17496;SDS011;62150;43.582;1.456;2022-11-20T07:21:00;7.60;;;3.37;;
17496;SDS011;62150;43.582;1.456;2022-11-20T07:23:27;6.43;;;3.13;;
17496;SDS011;62150;43.582;1.456;2022-11-20T07:25:55;8.57;;;3.50;;
17496;SDS011;62150;43.582;1.456;2022-11-20T07:28:22;6.77;;;3.47;;
17496;SDS011;62150;43.582;1.456;2022-11-20T07:30:50;7.43;;;3.30;;
17496;SDS011;62150;43.582;1.456;2022-11-20T07:33:19;8.13;;;3.80;;
17496;SDS011;62150;43.582;1.456;2022-11-20T07:35:48;8.33;;;3.43;;
17496;SDS011;62150;43.582;1.456;2022-11-20T07:38:15;7.07;;;3.40;;
17496;SDS011;62150;43.582;1.456;2022-11-20T07:40:43;7.30;;;3.60;;
17496;SDS011;62150;43.582;1.456;2022-11-20T07:43:10;7.10;;;3.37;;
17496;SDS011;62150;43.582;1.456;2022-11-20T07:45:38;7.93;;;3.40;;
17496;SDS011;62150;43.582;1.456;2022-11-20T07:48:06;6.83;;;3.40;;
17496;SDS011;62150;43.582;1.456;2022-11-20T07:50:34;7.33;;;3.60;;
17496;SDS011;62150;43.582;1.456;2022-11-20T07:53:03;8.57;;;3.47;;
17496;SDS011;62150;43.582;1.456;2022-11-20T07:55:31;7.37;;;3.33;;
17496;SDS011;62150;43.582;1.456;2022-11-20T07:57:59;8.40;;;3.63;;
17496;SDS011;62150;43.582;1.456;2022-11-20T08:00:27;6.50;;;3.20;;
17496;SDS011;62150;43.582;1.456;2022-11-20T08:02:57;7.47;;;3.37;;
17496;SDS011;62150;43.582;1.456;2022-11-20T08:05:25;7.60;;;3.43;;
17496;SDS011;62150;43.582;1.456;2022-11-20T08:07:53;8.83;;;3.50;;
17496;SDS011;62150;43.582;1.456;2022-11-20T08:10:21;7.20;;;3.43;;
17496;SDS011;62150;43.582;1.456;2022-11-20T08:12:50;8.17;;;3.60;;
17496;SDS011;62150;43.582;1.456;2022-11-20T08:15:36;7.10;;;3.27;;
17496;SDS011;62150;43.582;1.456;2022-11-20T08:18:05;7.80;;;3.37;;
17496;SDS011;62150;43.582;1.456;2022-11-20T08:20:34;8.30;;;3.37;;
17496;SDS011;62150;43.582;1.456;2022-11-20T08:23:03;7.90;;;3.50;;
17496;SDS011;62150;43.582;1.456;2022-11-20T08:25:33;7.40;;;3.53;;
17496;SDS011;62150;43.582;1.456;2022-11-20T08:28:04;7.87;;;3.40;;
17496;SDS011;62150;43.582;1.456;2022-11-20T08:30:32;8.30;;;3.53;;
17496;SDS011;62150;43.582;1.456;2022-11-20T08:33:00;9.53;;;4.33;;
17496;SDS011;62150;43.582;1.456;2022-11-20T08:35:32;8.13;;;3.73;;
17496;SDS011;62150;43.582;1.456;2022-11-20T08:38:01;8.17;;;4.00;;
17496;SDS011;62150;43.582;1.456;2022-11-20T08:40:28;8.50;;;3.87;;
17496;SDS011;62150;43.582;1.456;2022-11-20T08:42:57;9.17;;;4.30;;
17496;SDS011;62150;43.582;1.456;2022-11-20T08:45:25;11.20;;;5.00;;
17496;SDS011;62150;43.582;1.456;2022-11-20T08:47:53;9.70;;;4.53;;
17496;SDS011;62150;43.582;1.456;2022-11-20T08:50:25;8.07;;;4.30;;
17496;SDS011;62150;43.582;1.456;2022-11-20T08:52:53;9.57;;;4.30;;
17496;SDS011;62150;43.582;1.456;2022-11-20T08:55:20;9.00;;;4.03;;
17496;SDS011;62150;43.582;1.456;2022-11-20T08:57:48;9.37;;;4.77;;
17496;SDS011;62150;43.582;1.456;2022-11-20T09:00:17;9.63;;;4.47;;
17496;SDS011;62150;43.582;1.456;2022-11-20T09:02:45;9.87;;;4.47;;
17496;SDS011;62150;43.582;1.456;2022-11-20T09:05:12;9.30;;;4.23;;
17496;SDS011;62150;43.582;1.456;2022-11-20T09:07:40;9.57;;;4.30;;
17496;SDS011;62150;43.582;1.456;2022-11-20T09:10:08;9.43;;;3.83;;
17496;SDS011;62150;43.582;1.456;2022-11-20T09:12:35;7.73;;;3.83;;
17496;SDS011;62150;43.582;1.456;2022-11-20T09:15:03;8.60;;;3.93;;
17496;SDS011;62150;43.582;1.456;2022-11-20T09:17:32;9.23;;;4.07;;
17496;SDS011;62150;43.582;1.456;2022-11-20T09:20:00;7.87;;;3.80;;
17496;SDS011;62150;43.582;1.456;2022-11-20T09:22:27;8.97;;;4.03;;
17496;SDS011;62150;43.582;1.456;2022-11-20T09:24:55;10.00;;;3.90;;
17496;SDS011;62150;43.582;1.456;2022-11-20T09:27:22;7.90;;;3.30;;
17496;SDS011;62150;43.582;1.456;2022-11-20T09:29:50;8.87;;;3.87;;
17496;SDS011;62150;43.582;1.456;2022-11-20T09:32:17;7.57;;;3.27;;
17496;SDS011;62150;43.582;1.456;2022-11-20T09:34:46;8.93;;;3.50;;
17496;SDS011;62150;43.582;1.456;2022-11-20T09:37:14;9.43;;;3.97;;
17496;SDS011;62150;43.582;1.456;2022-11-20T09:39:41;8.17;;;4.00;;
17496;SDS011;62150;43.582;1.456;2022-11-20T09:42:13;8.27;;;4.10;;
17496;SDS011;62150;43.582;1.456;2022-11-20T09:45:02;10.03;;;4.13;;
17496;SDS011;62150;43.582;1.456;2022-11-20T09:47:45;8.27;;;3.53;;
17496;SDS011;62150;43.582;1.456;2022-11-20T09:50:27;7.73;;;3.57;;
17496;SDS011;62150;43.582;1.456;2022-11-20T09:53:03;7.20;;;3.30;;
17496;SDS011;62150;43.582;1.456;2022-11-20T09:55:38;8.30;;;3.77;;
17496;SDS011;62150;43.582;1.456;2022-11-20T09:58:06;7.13;;;3.33;;
17496;SDS011;62150;43.582;1.456;2022-11-20T10:00:40;7.93;;;3.87;;
17496;SDS011;62150;43.582;1.456;2022-11-20T10:03:11;8.93;;;4.27;;
17496;SDS011;62150;43.582;1.456;2022-11-20T10:05:45;8.23;;;4.03;;
17496;SDS011;62150;43.582;1.456;2022-11-20T10:08:16;8.40;;;4.00;;
17496;SDS011;62150;43.582;1.456;2022-11-20T10:10:49;7.97;;;3.80;;
17496;SDS011;62150;43.582;1.456;2022-11-20T10:13:23;9.33;;;4.00;;
17496;SDS011;62150;43.582;1.456;2022-11-20T10:16:06;8.97;;;4.10;;
17496;SDS011;62150;43.582;1.456;2022-11-20T10:18:50;9.50;;;4.50;;
17496;SDS011;62150;43.582;1.456;2022-11-20T10:21:32;9.07;;;4.20;;
17496;SDS011;62150;43.582;1.456;2022-11-20T10:27:03;9.40;;;4.03;;
17496;SDS011;62150;43.582;1.456;2022-11-20T10:29:41;10.03;;;4.37;;
17496;SDS011;62150;43.582;1.456;2022-11-20T10:32:14;9.53;;;4.27;;
17496;SDS011;62150;43.582;1.456;2022-11-20T10:34:46;10.60;;;4.37;;
17496;SDS011;62150;43.582;1.456;2022-11-20T10:37:21;8.63;;;4.00;;
17496;SDS011;62150;43.582;1.456;2022-11-20T10:39:51;8.40;;;3.87;;
17496;SDS011;62150;43.582;1.456;2022-11-20T10:42:26;8.47;;;3.97;;
17496;SDS011;62150;43.582;1.456;2022-11-20T10:45:01;8.97;;;3.93;;
17496;SDS011;62150;43.582;1.456;2022-11-20T10:47:41;8.60;;;4.00;;
17496;SDS011;62150;43.582;1.456;2022-11-20T10:50:10;9.33;;;4.17;;
17496;SDS011;62150;43.582;1.456;2022-11-20T10:52:45;9.47;;;4.23;;
17496;SDS011;62150;43.582;1.456;2022-11-20T10:55:25;7.77;;;3.67;;
17496;SDS011;62150;43.582;1.456;2022-11-20T10:58:01;8.70;;;3.77;;
17496;SDS011;62150;43.582;1.456;2022-11-20T11:00:36;6.80;;;3.43;;
17496;SDS011;62150;43.582;1.456;2022-11-20T11:03:07;8.53;;;3.60;;
17496;SDS011;62150;43.582;1.456;2022-11-20T11:05:48;8.53;;;3.67;;
17496;SDS011;62150;43.582;1.456;2022-11-20T11:08:22;9.30;;;4.03;;
17496;SDS011;62150;43.582;1.456;2022-11-20T11:10:53;8.57;;;3.90;;
17496;SDS011;62150;43.582;1.456;2022-11-20T11:13:24;7.73;;;3.57;;
17496;SDS011;62150;43.582;1.456;2022-11-20T11:15:53;8.03;;;3.60;;
17496;SDS011;62150;43.582;1.456;2022-11-20T11:18:24;9.73;;;3.80;;
17496;SDS011;62150;43.582;1.456;2022-11-20T11:20:54;8.47;;;3.63;;
17496;SDS011;62150;43.582;1.456;2022-11-20T11:23:34;9.67;;;4.00;;
17496;SDS011;62150;43.582;1.456;2022-11-20T11:26:03;7.57;;;3.43;;
17496;SDS011;62150;43.582;1.456;2022-11-20T11:28:31;7.80;;;3.63;;
17496;SDS011;62150;43.582;1.456;2022-11-20T11:31:00;8.63;;;3.80;;
17496;SDS011;62150;43.582;1.456;2022-11-20T11:33:28;7.63;;;3.80;;
17496;SDS011;62150;43.582;1.456;2022-11-20T11:35:59;8.67;;;3.70;;
17496;SDS011;62150;43.582;1.456;2022-11-20T11:38:29;6.97;;;3.30;;
17496;SDS011;62150;43.582;1.456;2022-11-20T11:41:02;7.87;;;3.43;;
17496;SDS011;62150;43.582;1.456;2022-11-20T11:43:32;7.80;;;3.53;;
17496;SDS011;62150;43.582;1.456;2022-11-20T11:46:25;7.03;;;3.20;;
17496;SDS011;62150;43.582;1.456;2022-11-20T11:48:57;7.40;;;3.50;;
17496;SDS011;62150;43.582;1.456;2022-11-20T11:51:26;7.77;;;3.20;;
17496;SDS011;62150;43.582;1.456;2022-11-20T11:54:00;7.47;;;3.40;;
17496;SDS011;62150;43.582;1.456;2022-11-20T11:56:37;6.80;;;3.43;;
17496;SDS011;62150;43.582;1.456;2022-11-20T11:59:06;7.53;;;3.17;;
17496;SDS011;62150;43.582;1.456;2022-11-20T12:01:41;6.67;;;3.17;;
17496;SDS011;62150;43.582;1.456;2022-11-20T12:04:14;7.70;;;3.37;;
17496;SDS011;62150;43.582;1.456;2022-11-20T12:06:56;7.37;;;3.47;;
17496;SDS011;62150;43.582;1.456;2022-11-20T12:09:33;7.03;;;3.50;;
17496;SDS011;62150;43.582;1.456;2022-11-20T12:12:05;7.37;;;3.30;;
17496;SDS011;62150;43.582;1.456;2022-11-20T12:14:39;6.57;;;3.10;;
17496;SDS011;62150;43.582;1.456;2022-11-20T12:17:09;7.40;;;3.27;;
17496;SDS011;62150;43.582;1.456;2022-11-20T12:19:38;7.50;;;3.47;;
17496;SDS011;62150;43.582;1.456;2022-11-20T12:22:07;7.13;;;3.40;;
17496;SDS011;62150;43.582;1.456;2022-11-20T12:24:49;7.20;;;3.30;;
17496;SDS011;62150;43.582;1.456;2022-11-20T12:30:23;5.93;;;2.83;;
17496;SDS011;62150;43.582;1.456;2022-11-20T12:32:55;8.33;;;3.60;;
17496;SDS011;62150;43.582;1.456;2022-11-20T12:35:58;7.80;;;3.53;;
17496;SDS011;62150;43.582;1.456;2022-11-20T12:38:40;7.13;;;3.10;;
17496;SDS011;62150;43.582;1.456;2022-11-20T12:41:36;6.50;;;2.90;;
17496;SDS011;62150;43.582;1.456;2022-11-20T12:44:35;6.33;;;2.60;;
17496;SDS011;62150;43.582;1.456;2022-11-20T12:47:39;6.10;;;2.67;;
17496;SDS011;62150;43.582;1.456;2022-11-20T12:50:37;5.33;;;2.60;;
17496;SDS011;62150;43.582;1.456;2022-11-20T12:53:16;5.50;;;2.67;;
17496;SDS011;62150;43.582;1.456;2022-11-20T12:55:52;4.90;;;2.50;;
17496;SDS011;62150;43.582;1.456;2022-11-20T12:58:30;6.10;;;2.50;;
17496;SDS011;62150;43.582;1.456;2022-11-20T13:01:11;4.40;;;2.40;;
17496;SDS011;62150;43.582;1.456;2022-11-20T13:04:03;5.20;;;2.50;;
17496;SDS011;62150;43.582;1.456;2022-11-20T13:06:41;6.07;;;2.50;;
17496;SDS011;62150;43.582;1.456;2022-11-20T13:09:11;4.63;;;2.23;;
17496;SDS011;62150;43.582;1.456;2022-11-20T13:11:42;4.33;;;2.10;;
17496;SDS011;62150;43.582;1.456;2022-11-20T13:14:19;3.93;;;1.87;;
17496;SDS011;62150;43.582;1.456;2022-11-20T13:16:58;2.73;;;1.70;;
17496;SDS011;62150;43.582;1.456;2022-11-20T13:19:31;2.30;;;1.70;;
17496;SDS011;62150;43.582;1.456;2022-11-20T13:22:00;3.13;;;1.60;;
17496;SDS011;62150;43.582;1.456;2022-11-20T13:24:29;3.03;;;1.80;;
17496;SDS011;62150;43.582;1.456;2022-11-20T13:27:04;5.00;;;1.90;;
17496;SDS011;62150;43.582;1.456;2022-11-20T13:29:46;3.53;;;1.90;;
17496;SDS011;62150;43.582;1.456;2022-11-20T13:32:25;3.10;;;1.90;;
17496;SDS011;62150;43.582;1.456;2022-11-20T13:34:57;5.43;;;2.40;;
17496;SDS011;62150;43.582;1.456;2022-11-20T13:37:27;4.73;;;2.40;;
17496;SDS011;62150;43.582;1.456;2022-11-20T13:40:13;6.27;;;2.97;;
17496;SDS011;62150;43.582;1.456;2022-11-20T13:42:54;5.43;;;2.67;;
17496;SDS011;62150;43.582;1.456;2022-11-20T13:45:29;4.47;;;2.47;;
17496;SDS011;62150;43.582;1.456;2022-11-20T13:47:59;5.50;;;2.70;;
17496;SDS011;62150;43.582;1.456;2022-11-20T13:50:40;5.73;;;2.47;;
17496;SDS011;62150;43.582;1.456;2022-11-20T13:53:21;5.97;;;2.60;;
17496;SDS011;62150;43.582;1.456;2022-11-20T13:56:00;9.00;;;2.90;;
17496;SDS011;62150;43.582;1.456;2022-11-20T13:58:36;6.13;;;2.70;;
17496;SDS011;62150;43.582;1.456;2022-11-20T14:01:16;8.13;;;2.87;;
17496;SDS011;62150;43.582;1.456;2022-11-20T14:03:47;8.23;;;3.27;;
17496;SDS011;62150;43.582;1.456;2022-11-20T14:06:18;7.10;;;3.00;;
17496;SDS011;62150;43.582;1.456;2022-11-20T14:08:52;6.80;;;2.93;;
17496;SDS011;62150;43.582;1.456;2022-11-20T14:11:21;6.33;;;3.33;;
17496;SDS011;62150;43.582;1.456;2022-11-20T14:13:59;7.10;;;3.00;;
17496;SDS011;62150;43.582;1.456;2022-11-20T14:16:31;7.03;;;2.93;;
17496;SDS011;62150;43.582;1.456;2022-11-20T14:21:51;8.07;;;2.90;;
17496;SDS011;62150;43.582;1.456;2022-11-20T14:24:20;6.33;;;2.80;;
17496;SDS011;62150;43.582;1.456;2022-11-20T14:26:49;7.77;;;3.40;;
17496;SDS011;62150;43.582;1.456;2022-11-20T14:29:18;7.90;;;3.10;;
17496;SDS011;62150;43.582;1.456;2022-11-20T14:31:50;5.73;;;2.67;;
17496;SDS011;62150;43.582;1.456;2022-11-20T14:34:20;7.83;;;2.70;;
17496;SDS011;62150;43.582;1.456;2022-11-20T14:36:50;7.27;;;2.67;;
17496;SDS011;62150;43.582;1.456;2022-11-20T14:39:25;5.97;;;2.77;;
17496;SDS011;62150;43.582;1.456;2022-11-20T14:41:56;7.00;;;2.70;;
17496;SDS011;62150;43.582;1.456;2022-11-20T14:44:25;6.57;;;2.60;;
17496;SDS011;62150;43.582;1.456;2022-11-20T14:46:56;8.67;;;2.50;;
17496;SDS011;62150;43.582;1.456;2022-11-20T14:49:26;6.30;;;2.40;;
17496;SDS011;62150;43.582;1.456;2022-11-20T14:52:00;6.73;;;2.40;;
17496;SDS011;62150;43.582;1.456;2022-11-20T14:54:42;7.97;;;2.50;;
17496;SDS011;62150;43.582;1.456;2022-11-20T14:57:19;7.17;;;2.27;;
17496;SDS011;62150;43.582;1.456;2022-11-20T14:59:49;9.17;;;2.50;;
17496;SDS011;62150;43.582;1.456;2022-11-20T15:02:18;10.23;;;2.70;;
17496;SDS011;62150;43.582;1.456;2022-11-20T15:04:46;8.27;;;2.47;;
17496;SDS011;62150;43.582;1.456;2022-11-20T15:07:24;8.07;;;2.37;;
17496;SDS011;62150;43.582;1.456;2022-11-20T15:10:00;9.07;;;2.30;;
17496;SDS011;62150;43.582;1.456;2022-11-20T15:12:29;8.40;;;2.47;;
17496;SDS011;62150;43.582;1.456;2022-11-20T15:14:57;9.73;;;2.80;;
17496;SDS011;62150;43.582;1.456;2022-11-20T15:17:27;7.83;;;2.50;;
17496;SDS011;62150;43.582;1.456;2022-11-20T15:19:56;8.47;;;2.77;;
17496;SDS011;62150;43.582;1.456;2022-11-20T15:22:25;11.37;;;2.67;;
17496;SDS011;62150;43.582;1.456;2022-11-20T15:24:52;10.17;;;2.67;;
17496;SDS011;62150;43.582;1.456;2022-11-20T15:27:20;7.33;;;2.40;;
17496;SDS011;62150;43.582;1.456;2022-11-20T15:29:48;9.73;;;2.80;;
17496;SDS011;62150;43.582;1.456;2022-11-20T15:32:15;10.07;;;2.60;;
17496;SDS011;62150;43.582;1.456;2022-11-20T15:34:44;9.80;;;2.60;;
17496;SDS011;62150;43.582;1.456;2022-11-20T15:37:12;9.83;;;2.67;;
17496;SDS011;62150;43.582;1.456;2022-11-20T15:39:39;9.73;;;2.60;;
17496;SDS011;62150;43.582;1.456;2022-11-20T15:42:06;9.80;;;2.40;;
17496;SDS011;62150;43.582;1.456;2022-11-20T15:44:34;9.77;;;2.80;;
17496;SDS011;62150;43.582;1.456;2022-11-20T15:47:02;9.90;;;2.77;;
17496;SDS011;62150;43.582;1.456;2022-11-20T15:49:29;10.60;;;3.00;;
17496;SDS011;62150;43.582;1.456;2022-11-20T15:51:58;10.30;;;2.80;;
17496;SDS011;62150;43.582;1.456;2022-11-20T15:54:26;9.63;;;2.50;;
17496;SDS011;62150;43.582;1.456;2022-11-20T15:56:53;7.53;;;2.30;;
17496;SDS011;62150;43.582;1.456;2022-11-20T15:59:21;9.57;;;2.80;;
17496;SDS011;62150;43.582;1.456;2022-11-20T16:01:48;13.23;;;2.90;;
17496;SDS011;62150;43.582;1.456;2022-11-20T16:04:16;10.33;;;3.30;;
17496;SDS011;62150;43.582;1.456;2022-11-20T16:06:44;9.80;;;2.93;;
17496;SDS011;62150;43.582;1.456;2022-11-20T16:09:13;9.27;;;2.97;;
17496;SDS011;62150;43.582;1.456;2022-11-20T16:11:40;9.20;;;2.97;;
17496;SDS011;62150;43.582;1.456;2022-11-20T16:14:08;12.23;;;4.30;;
17496;SDS011;62150;43.582;1.456;2022-11-20T16:16:54;11.57;;;3.40;;
17496;SDS011;62150;43.582;1.456;2022-11-20T16:19:22;10.73;;;3.40;;
17496;SDS011;62150;43.582;1.456;2022-11-20T16:21:49;10.93;;;3.40;;
17496;SDS011;62150;43.582;1.456;2022-11-20T16:24:18;11.30;;;3.70;;
17496;SDS011;62150;43.582;1.456;2022-11-20T16:26:46;12.13;;;4.03;;
17496;SDS011;62150;43.582;1.456;2022-11-20T16:29:13;15.47;;;5.53;;
17496;SDS011;62150;43.582;1.456;2022-11-20T16:31:41;16.10;;;4.27;;
17496;SDS011;62150;43.582;1.456;2022-11-20T16:34:08;10.73;;;3.30;;
17496;SDS011;62150;43.582;1.456;2022-11-20T16:36:38;11.13;;;3.37;;
17496;SDS011;62150;43.582;1.456;2022-11-20T16:39:07;10.37;;;3.17;;
17496;SDS011;62150;43.582;1.456;2022-11-20T16:41:36;9.20;;;3.17;;
17496;SDS011;62150;43.582;1.456;2022-11-20T16:44:06;12.77;;;3.93;;
17496;SDS011;62150;43.582;1.456;2022-11-20T16:46:34;10.33;;;3.57;;
17496;SDS011;62150;43.582;1.456;2022-11-20T16:49:03;11.90;;;3.57;;
17496;SDS011;62150;43.582;1.456;2022-11-20T16:51:33;12.93;;;3.80;;
17496;SDS011;62150;43.582;1.456;2022-11-20T16:54:01;8.67;;;3.30;;
17496;SDS011;62150;43.582;1.456;2022-11-20T16:56:30;10.43;;;3.10;;
17496;SDS011;62150;43.582;1.456;2022-11-20T16:58:59;10.40;;;3.47;;
17496;SDS011;62150;43.582;1.456;2022-11-20T17:01:33;9.50;;;3.00;;
17496;SDS011;62150;43.582;1.456;2022-11-20T17:04:04;10.23;;;2.90;;
17496;SDS011;62150;43.582;1.456;2022-11-20T17:06:32;9.17;;;3.00;;
17496;SDS011;62150;43.582;1.456;2022-11-20T17:09:01;9.00;;;3.00;;
17496;SDS011;62150;43.582;1.456;2022-11-20T17:11:29;12.23;;;3.10;;
17496;SDS011;62150;43.582;1.456;2022-11-20T17:13:59;11.00;;;3.20;;
17496;SDS011;62150;43.582;1.456;2022-11-20T17:16:27;7.30;;;2.80;;
17496;SDS011;62150;43.582;1.456;2022-11-20T17:18:55;11.83;;;2.90;;
17496;SDS011;62150;43.582;1.456;2022-11-20T17:21:24;11.83;;;3.43;;
17496;SDS011;62150;43.582;1.456;2022-11-20T17:23:53;9.57;;;3.77;;
17496;SDS011;62150;43.582;1.456;2022-11-20T17:26:21;10.20;;;2.80;;
17496;SDS011;62150;43.582;1.456;2022-11-20T17:28:51;10.27;;;3.00;;
17496;SDS011;62150;43.582;1.456;2022-11-20T17:31:22;8.53;;;2.60;;
17496;SDS011;62150;43.582;1.456;2022-11-20T17:33:50;8.07;;;2.70;;
17496;SDS011;62150;43.582;1.456;2022-11-20T17:36:18;7.70;;;2.40;;
17496;SDS011;62150;43.582;1.456;2022-11-20T17:38:46;10.03;;;2.50;;
17496;SDS011;62150;43.582;1.456;2022-11-20T17:41:14;7.37;;;2.70;;
17496;SDS011;62150;43.582;1.456;2022-11-20T17:43:43;9.40;;;2.60;;
17496;SDS011;62150;43.582;1.456;2022-11-20T17:46:12;9.47;;;2.93;;
17496;SDS011;62150;43.582;1.456;2022-11-20T17:48:43;7.60;;;2.40;;
17496;SDS011;62150;43.582;1.456;2022-11-20T17:51:12;6.53;;;2.47;;
17496;SDS011;62150;43.582;1.456;2022-11-20T17:53:42;7.10;;;2.40;;
17496;SDS011;62150;43.582;1.456;2022-11-20T17:56:11;6.47;;;2.60;;
17496;SDS011;62150;43.582;1.456;2022-11-20T17:58:56;8.40;;;2.70;;
17496;SDS011;62150;43.582;1.456;2022-11-20T18:01:24;9.07;;;3.00;;
17496;SDS011;62150;43.582;1.456;2022-11-20T18:03:53;10.40;;;3.53;;
17496;SDS011;62150;43.582;1.456;2022-11-20T18:06:23;10.67;;;3.23;;
17496;SDS011;62150;43.582;1.456;2022-11-20T18:08:52;10.50;;;3.10;;
17496;SDS011;62150;43.582;1.456;2022-11-20T18:11:21;9.37;;;2.97;;
17496;SDS011;62150;43.582;1.456;2022-11-20T18:13:50;6.77;;;2.00;;
17496;SDS011;62150;43.582;1.456;2022-11-20T18:16:38;7.00;;;2.13;;
17496;SDS011;62150;43.582;1.456;2022-11-20T18:19:08;6.20;;;2.27;;
17496;SDS011;62150;43.582;1.456;2022-11-20T18:21:37;9.03;;;2.60;;
17496;SDS011;62150;43.582;1.456;2022-11-20T18:24:04;8.37;;;2.40;;
17496;SDS011;62150;43.582;1.456;2022-11-20T18:26:33;9.57;;;2.67;;
17496;SDS011;62150;43.582;1.456;2022-11-20T18:29:00;7.23;;;2.50;;
17496;SDS011;62150;43.582;1.456;2022-11-20T18:31:28;7.97;;;2.30;;
17496;SDS011;62150;43.582;1.456;2022-11-20T18:33:55;9.03;;;2.90;;
17496;SDS011;62150;43.582;1.456;2022-11-20T18:36:25;7.13;;;2.40;;
17496;SDS011;62150;43.582;1.456;2022-11-20T18:38:55;11.00;;;2.80;;
17496;SDS011;62150;43.582;1.456;2022-11-20T18:41:24;8.47;;;2.30;;
17496;SDS011;62150;43.582;1.456;2022-11-20T18:44:11;11.10;;;3.03;;
17496;SDS011;62150;43.582;1.456;2022-11-20T18:46:57;8.40;;;2.40;;
17496;SDS011;62150;43.582;1.456;2022-11-20T18:49:25;8.17;;;2.10;;
17496;SDS011;62150;43.582;1.456;2022-11-20T18:51:54;9.30;;;2.43;;
17496;SDS011;62150;43.582;1.456;2022-11-20T18:54:22;7.23;;;2.23;;
17496;SDS011;62150;43.582;1.456;2022-11-20T18:56:50;8.97;;;2.30;;
17496;SDS011;62150;43.582;1.456;2022-11-20T18:59:18;10.67;;;2.50;;
17496;SDS011;62150;43.582;1.456;2022-11-20T19:01:46;8.93;;;2.60;;
17496;SDS011;62150;43.582;1.456;2022-11-20T19:04:14;8.03;;;2.47;;
17496;SDS011;62150;43.582;1.456;2022-11-20T19:06:44;10.60;;;2.57;;
17496;SDS011;62150;43.582;1.456;2022-11-20T19:09:15;7.77;;;2.50;;
17496;SDS011;62150;43.582;1.456;2022-11-20T19:11:42;9.43;;;2.47;;
17496;SDS011;62150;43.582;1.456;2022-11-20T19:14:10;8.80;;;2.67;;
17496;SDS011;62150;43.582;1.456;2022-11-20T19:16:38;10.27;;;2.70;;
17496;SDS011;62150;43.582;1.456;2022-11-20T19:19:07;7.83;;;2.67;;
17496;SDS011;62150;43.582;1.456;2022-11-20T19:21:35;7.60;;;2.50;;
17496;SDS011;62150;43.582;1.456;2022-11-20T19:24:02;10.47;;;2.80;;
17496;SDS011;62150;43.582;1.456;2022-11-20T19:26:32;9.83;;;2.90;;
17496;SDS011;62150;43.582;1.456;2022-11-20T19:29:01;11.60;;;2.93;;
17496;SDS011;62150;43.582;1.456;2022-11-20T19:31:29;12.03;;;2.77;;
17496;SDS011;62150;43.582;1.456;2022-11-20T19:33:57;9.03;;;2.97;;
17496;SDS011;62150;43.582;1.456;2022-11-20T19:36:26;10.40;;;3.93;;
17496;SDS011;62150;43.582;1.456;2022-11-20T19:38:55;9.73;;;3.00;;
17496;SDS011;62150;43.582;1.456;2022-11-20T19:41:23;9.77;;;3.43;;
17496;SDS011;62150;43.582;1.456;2022-11-20T19:43:57;9.40;;;2.90;;
17496;SDS011;62150;43.582;1.456;2022-11-20T19:46:26;8.63;;;3.00;;
17496;SDS011;62150;43.582;1.456;2022-11-20T19:48:56;9.23;;;2.60;;
17496;SDS011;62150;43.582;1.456;2022-11-20T19:51:24;8.27;;;2.60;;
17496;SDS011;62150;43.582;1.456;2022-11-20T19:53:54;9.37;;;2.70;;
17496;SDS011;62150;43.582;1.456;2022-11-20T19:56:22;8.40;;;2.60;;
17496;SDS011;62150;43.582;1.456;2022-11-20T19:58:51;8.10;;;2.60;;
17496;SDS011;62150;43.582;1.456;2022-11-20T20:01:21;8.17;;;2.40;;
17496;SDS011;62150;43.582;1.456;2022-11-20T20:03:50;8.13;;;2.60;;
17496;SDS011;62150;43.582;1.456;2022-11-20T20:06:20;7.03;;;2.97;;
17496;SDS011;62150;43.582;1.456;2022-11-20T20:08:52;8.90;;;3.00;;
17496;SDS011;62150;43.582;1.456;2022-11-20T20:11:22;8.77;;;3.17;;
17496;SDS011;62150;43.582;1.456;2022-11-20T20:13:51;10.87;;;3.27;;
17496;SDS011;62150;43.582;1.456;2022-11-20T20:16:22;8.57;;;3.60;;
17496;SDS011;62150;43.582;1.456;2022-11-20T20:18:53;10.47;;;3.80;;
17496;SDS011;62150;43.582;1.456;2022-11-20T20:21:21;12.37;;;4.40;;
17496;SDS011;62150;43.582;1.456;2022-11-20T20:23:49;10.20;;;3.33;;
17496;SDS011;62150;43.582;1.456;2022-11-20T20:26:18;10.40;;;3.40;;
17496;SDS011;62150;43.582;1.456;2022-11-20T20:28:46;8.63;;;3.10;;
17496;SDS011;62150;43.582;1.456;2022-11-20T20:31:15;9.70;;;3.20;;
17496;SDS011;62150;43.582;1.456;2022-11-20T20:33:44;10.13;;;3.20;;
17496;SDS011;62150;43.582;1.456;2022-11-20T20:36:13;9.93;;;3.50;;
17496;SDS011;62150;43.582;1.456;2022-11-20T20:38:41;8.27;;;3.50;;
17496;SDS011;62150;43.582;1.456;2022-11-20T20:41:10;10.37;;;3.20;;
17496;SDS011;62150;43.582;1.456;2022-11-20T20:43:38;15.50;;;6.57;;
17496;SDS011;62150;43.582;1.456;2022-11-20T20:46:23;13.30;;;5.50;;
17496;SDS011;62150;43.582;1.456;2022-11-20T20:48:52;14.90;;;5.40;;
17496;SDS011;62150;43.582;1.456;2022-11-20T20:51:20;12.43;;;4.43;;
17496;SDS011;62150;43.582;1.456;2022-11-20T20:53:48;10.97;;;4.83;;
17496;SDS011;62150;43.582;1.456;2022-11-20T20:56:16;10.17;;;4.17;;
17496;SDS011;62150;43.582;1.456;2022-11-20T20:58:44;11.90;;;4.03;;
17496;SDS011;62150;43.582;1.456;2022-11-20T21:01:12;11.20;;;5.10;;
17496;SDS011;62150;43.582;1.456;2022-11-20T21:03:41;14.37;;;6.53;;
17496;SDS011;62150;43.582;1.456;2022-11-20T21:06:11;15.33;;;7.23;;
17496;SDS011;62150;43.582;1.456;2022-11-20T21:08:38;12.53;;;5.67;;
17496;SDS011;62150;43.582;1.456;2022-11-20T21:11:07;14.30;;;5.80;;
17496;SDS011;62150;43.582;1.456;2022-11-20T21:13:36;11.07;;;4.50;;
17496;SDS011;62150;43.582;1.456;2022-11-20T21:16:05;12.83;;;5.03;;
17496;SDS011;62150;43.582;1.456;2022-11-20T21:18:33;10.30;;;3.80;;
17496;SDS011;62150;43.582;1.456;2022-11-20T21:21:02;9.83;;;4.07;;
17496;SDS011;62150;43.582;1.456;2022-11-20T21:23:49;8.87;;;3.63;;
17496;SDS011;62150;43.582;1.456;2022-11-20T21:26:18;8.03;;;3.10;;
17496;SDS011;62150;43.582;1.456;2022-11-20T21:28:46;9.27;;;3.60;;
17496;SDS011;62150;43.582;1.456;2022-11-20T21:31:15;8.50;;;3.07;;
17496;SDS011;62150;43.582;1.456;2022-11-20T21:33:46;8.13;;;2.67;;
17496;SDS011;62150;43.582;1.456;2022-11-20T21:36:16;7.20;;;2.80;;
17496;SDS011;62150;43.582;1.456;2022-11-20T21:38:45;8.83;;;3.37;;
17496;SDS011;62150;43.582;1.456;2022-11-20T21:41:14;11.03;;;4.30;;
17496;SDS011;62150;43.582;1.456;2022-11-20T21:43:42;8.53;;;3.70;;
17496;SDS011;62150;43.582;1.456;2022-11-20T21:46:10;11.10;;;4.33;;
17496;SDS011;62150;43.582;1.456;2022-11-20T21:48:39;10.00;;;4.10;;
17496;SDS011;62150;43.582;1.456;2022-11-20T21:51:08;11.07;;;4.80;;
17496;SDS011;62150;43.582;1.456;2022-11-20T21:53:36;9.20;;;3.80;;
17496;SDS011;62150;43.582;1.456;2022-11-20T21:56:05;7.93;;;3.40;;
17496;SDS011;62150;43.582;1.456;2022-11-20T21:58:35;7.80;;;3.20;;
17496;SDS011;62150;43.582;1.456;2022-11-20T22:01:07;9.33;;;3.10;;
17496;SDS011;62150;43.582;1.456;2022-11-20T22:03:35;7.13;;;2.90;;
17496;SDS011;62150;43.582;1.456;2022-11-20T22:06:03;7.03;;;3.00;;
17496;SDS011;62150;43.582;1.456;2022-11-20T22:08:32;7.60;;;3.30;;
17496;SDS011;62150;43.582;1.456;2022-11-20T22:11:01;8.63;;;3.17;;
17496;SDS011;62150;43.582;1.456;2022-11-20T22:13:30;8.37;;;3.40;;
17496;SDS011;62150;43.582;1.456;2022-11-20T22:16:16;8.50;;;3.50;;
17496;SDS011;62150;43.582;1.456;2022-11-20T22:18:44;8.40;;;3.50;;